Time;durP1;ratioP1;P1;durP2;ratioP2;P2;SDS_P1;SDS_P2;PMS_P1;PMS_P2;Temp;Humidity;BMP_temperature;BMP_pressure;BME280_temperature;BME280_humidity;BME280_pressure;Samples;Min_cycle;Max_cycle;Signal;HPM_P1;HPM_P2
2022/12/26 00:02:06;;;;;;;36.07;19.07;;;9.70;99.90;;;;;;4993927;28;20226;-85
2022/12/26 00:04:32;;;;;;;33.80;19.07;;;9.70;99.90;;;;;;4993876;28;20215;-84
2022/12/26 00:07:01;;;;;;;39.07;21.73;;;9.70;99.90;;;;;;4994078;28;20402;-83
2022/12/26 00:09:28;;;;;;;42.13;21.57;;;9.70;99.90;;;;;;4994337;28;20200;-84
2022/12/26 00:11:54;;;;;;;37.67;20.43;;;9.70;99.90;;;;;;4993867;28;20282;-82
2022/12/26 00:14:21;;;;;;;39.33;20.63;;;9.70;99.90;;;;;;4993805;28;20204;-84
2022/12/26 00:16:48;;;;;;;32.57;18.20;;;9.70;99.90;;;;;;4994239;28;20211;-84
2022/12/26 00:19:15;;;;;;;36.30;18.80;;;9.60;99.90;;;;;;4994023;28;20310;-84
2022/12/26 00:21:43;;;;;;;33.33;18.83;;;9.70;99.90;;;;;;4993593;28;20214;-83
2022/12/26 00:24:11;;;;;;;36.33;19.23;;;9.70;99.90;;;;;;4993173;28;20228;-83
2022/12/26 00:26:38;;;;;;;37.27;19.70;;;9.70;99.90;;;;;;4993582;28;20218;-82
2022/12/26 00:29:05;;;;;;;37.83;20.63;;;9.70;99.90;;;;;;4993407;28;20752;-83
2022/12/26 00:31:34;;;;;;;35.60;19.40;;;9.70;99.90;;;;;;4993828;28;20651;-84
2022/12/26 00:34:02;;;;;;;39.17;18.70;;;9.70;99.90;;;;;;4993485;28;20789;-82
2022/12/26 00:36:31;;;;;;;40.33;19.83;;;9.60;99.90;;;;;;4993966;28;20704;-83
2022/12/26 00:38:59;;;;;;;31.43;17.50;;;9.60;99.90;;;;;;4993466;28;20699;-85
2022/12/26 00:41:29;;;;;;;31.97;16.90;;;9.70;99.90;;;;;;4993853;28;20200;-85
2022/12/26 00:43:56;;;;;;;25.53;14.37;;;9.60;99.90;;;;;;4996509;28;20238;-83
2022/12/26 00:46:23;;;;;;;29.33;16.97;;;9.60;99.90;;;;;;4998434;28;20227;-83
2022/12/26 00:48:50;;;;;;;29.43;15.40;;;9.70;99.90;;;;;;4997041;28;20672;-84
2022/12/26 00:51:17;;;;;;;26.53;14.70;;;9.70;99.90;;;;;;4997122;28;20288;-84
2022/12/26 00:53:45;;;;;;;27.53;15.97;;;9.70;99.90;;;;;;4997142;28;20808;-82
2022/12/26 00:56:12;;;;;;;29.50;15.30;;;9.60;99.90;;;;;;4996916;28;20203;-84
2022/12/26 00:58:40;;;;;;;27.33;13.20;;;9.70;99.90;;;;;;4996855;28;20287;-83
2022/12/26 01:01:12;;;;;;;23.80;13.87;;;9.60;99.90;;;;;;4997491;28;20702;-84
2022/12/26 01:03:39;;;;;;;20.93;12.40;;;9.60;99.90;;;;;;4998161;28;20206;-84
2022/12/26 01:06:07;;;;;;;21.83;12.53;;;9.60;99.90;;;;;;5015960;28;20203;-85
2022/12/26 01:08:34;;;;;;;20.03;11.33;;;9.60;99.90;;;;;;5006725;28;20286;-82
2022/12/26 01:11:04;;;;;;;23.17;10.97;;;9.60;99.90;;;;;;4997218;28;20279;-85
2022/12/26 01:13:31;;;;;;;20.97;11.10;;;9.60;99.90;;;;;;4997147;28;20207;-83
2022/12/26 01:16:00;;;;;;;19.63;11.20;;;9.60;99.90;;;;;;4997443;28;20579;-83
2022/12/26 01:18:27;;;;;;;19.20;9.77;;;9.60;99.90;;;;;;4998109;28;20230;-85
2022/12/26 01:20:59;;;;;;;19.73;9.90;;;9.60;99.90;;;;;;4997071;28;20303;-85
2022/12/26 01:23:26;;;;;;;17.63;9.77;;;9.60;99.90;;;;;;4997066;28;20223;-83
2022/12/26 01:25:53;;;;;;;19.73;10.13;;;9.60;99.90;;;;;;5010561;28;20626;-84
2022/12/26 01:28:20;;;;;;;15.70;9.67;;;9.60;99.90;;;;;;5016344;28;20199;-84
2022/12/26 01:30:47;;;;;;;13.23;8.40;;;9.60;99.90;;;;;;5010539;28;20201;-84
2022/12/26 01:33:16;;;;;;;19.30;9.03;;;9.60;99.90;;;;;;4997485;28;20477;-85
2022/12/26 01:35:50;;;;;;;17.87;9.80;;;9.60;99.90;;;;;;4997468;28;20196;-86
2022/12/26 01:38:18;;;;;;;14.70;8.37;;;9.60;99.90;;;;;;4997496;28;20207;-86
2022/12/26 01:40:45;;;;;;;21.60;10.97;;;9.60;99.90;;;;;;5012520;28;20643;-85
2022/12/26 01:43:14;;;;;;;24.83;12.70;;;9.60;99.90;;;;;;5015529;28;20207;-85
2022/12/26 01:45:43;;;;;;;18.80;10.17;;;9.60;99.90;;;;;;5016103;28;20627;-86
2022/12/26 01:48:20;;;;;;;20.60;9.80;;;9.70;99.90;;;;;;4997059;28;20235;-85
2022/12/26 01:50:52;;;;;;;19.83;10.60;;;9.70;99.90;;;;;;4996571;28;20498;-84
2022/12/26 01:53:22;;;;;;;20.93;11.03;;;9.70;99.90;;;;;;4996565;28;20192;-84
2022/12/26 01:55:54;;;;;;;17.93;10.07;;;9.70;99.90;;;;;;4995281;28;20189;-84
2022/12/26 01:58:27;;;;;;;15.40;10.03;;;9.70;99.90;;;;;;4998739;28;20262;-85
2022/12/26 02:00:54;;;;;;;18.50;11.53;;;9.70;99.90;;;;;;5015887;28;20314;-84
2022/12/26 02:06:19;;;;;;;21.90;11.00;;;9.60;99.90;;;;;;4994067;28;20607;-85
2022/12/26 02:08:46;;;;;;;17.80;9.83;;;9.60;99.90;;;;;;4992478;28;20212;-84
2022/12/26 02:11:17;;;;;;;20.10;10.40;;;9.60;99.90;;;;;;4996450;28;20250;-84
2022/12/26 02:13:44;;;;;;;16.93;9.37;;;9.60;99.90;;;;;;4995396;28;20255;-82
2022/12/26 02:16:14;;;;;;;14.13;9.43;;;9.60;99.90;;;;;;4995092;28;20200;-82
2022/12/26 02:18:43;;;;;;;15.43;9.00;;;9.60;99.90;;;;;;4995546;28;20315;-82
2022/12/26 02:21:48;;;;;;;15.93;8.67;;;9.60;99.90;;;;;;4994945;28;20605;-83
2022/12/26 02:24:54;;;;;;;18.73;10.27;;;9.60;99.90;;;;;;4994999;28;20203;-83
2022/12/26 02:27:32;;;;;;;21.00;9.67;;;9.60;99.90;;;;;;4994757;28;20206;-83
2022/12/26 02:30:08;;;;;;;15.77;8.40;;;9.60;99.90;;;;;;4995392;28;20821;-82
2022/12/26 02:32:53;;;;;;;17.90;8.50;;;9.50;99.90;;;;;;4995128;28;20697;-83
2022/12/26 02:35:31;;;;;;;13.63;8.87;;;9.50;99.90;;;;;;4994101;28;20194;-84
2022/12/26 02:38:09;;;;;;;13.53;7.73;;;9.50;99.90;;;;;;4995358;28;20191;-85
2022/12/26 02:40:46;;;;;;;18.57;8.10;;;9.40;99.90;;;;;;4995463;28;20237;-83
2022/12/26 02:43:21;;;;;;;13.77;8.03;;;9.40;99.90;;;;;;4994924;28;20206;-85
2022/12/26 02:48:55;;;;;;;12.73;8.60;;;9.40;99.90;;;;;;4990192;28;20587;-84
2022/12/26 03:14:10;;;;;;;19.03;11.27;;;9.20;99.90;;;;;;4993982;28;20657;-81
2022/12/26 03:19:28;;;;;;;19.80;10.90;;;9.10;99.90;;;;;;4968898;28;20199;-84
2022/12/26 03:21:59;;;;;;;22.93;11.90;;;9.20;99.90;;;;;;5008712;28;20501;-85
2022/12/26 03:26:38;;;;;;;18.00;10.97;;;9.20;99.90;;;;;;5013390;28;20290;-81
2022/12/26 03:27:13;;;;;;;19.30;11.10;;;9.30;99.90;;;;;;5013578;28;20647;-84
2022/12/26 03:32:24;;;;;;;18.27;11.37;;;9.40;99.90;;;;;;4994971;28;20306;-83
2022/12/26 03:34:51;;;;;;;20.47;10.27;;;9.40;99.90;;;;;;4994858;28;20227;-83
2022/12/26 03:37:33;;;;;;;23.87;10.57;;;9.40;99.90;;;;;;4997187;28;20245;-83
2022/12/26 04:20:34;;;;;;;15.53;8.43;;;9.40;99.90;;;;;;4997364;28;20295;-83
2022/12/26 04:45:35;;;;;;;10.97;4.07;;;9.30;99.90;;;;;;4997956;28;20198;-83
2022/12/26 04:50:50;;;;;;;11.80;4.30;;;9.30;99.90;;;;;;4997188;28;20486;-83
2022/12/26 04:53:18;;;;;;;13.67;4.43;;;9.30;99.90;;;;;;4997346;28;20199;-82
2022/12/26 04:55:44;;;;;;;13.13;4.17;;;9.30;99.90;;;;;;4996551;28;20226;-83
2022/12/26 04:58:12;;;;;;;15.30;4.90;;;9.30;99.90;;;;;;4997632;28;20287;-82
2022/12/26 05:00:40;;;;;;;16.00;4.70;;;9.40;99.90;;;;;;4997849;28;20259;-83
2022/12/26 05:11:27;;;;;;;14.50;4.67;;;9.30;99.90;;;;;;4996230;28;20238;-80
2022/12/26 05:13:55;;;;;;;11.87;4.57;;;9.40;99.90;;;;;;5015835;28;20257;-81
2022/12/26 05:30:18;;;;;;;10.90;3.30;;;9.30;99.90;;;;;;5014625;28;20245;-82
2022/12/26 05:35:32;;;;;;;5.97;3.03;;;9.30;99.90;;;;;;4996384;28;20203;-82
2022/12/26 05:37:59;;;;;;;9.13;3.57;;;9.30;99.90;;;;;;4995414;28;20224;-83
2022/12/26 05:40:26;;;;;;;12.67;3.20;;;9.20;99.90;;;;;;4995122;28;20244;-82
2022/12/26 05:42:53;;;;;;;9.83;3.37;;;9.20;99.90;;;;;;4995826;28;20204;-83
2022/12/26 05:45:20;;;;;;;12.40;3.63;;;9.30;99.90;;;;;;4996195;28;20204;-83
2022/12/26 05:47:49;;;;;;;9.00;2.80;;;9.30;99.90;;;;;;4996279;28;20287;-83
2022/12/26 05:50:16;;;;;;;8.50;3.33;;;9.30;99.90;;;;;;4996829;28;20202;-83
2022/12/26 05:52:43;;;;;;;13.23;4.03;;;9.40;99.90;;;;;;4995614;28;20307;-80
2022/12/26 05:55:10;;;;;;;8.50;3.47;;;9.40;99.90;;;;;;4995899;28;20667;-82
2022/12/26 05:57:37;;;;;;;16.47;3.33;;;9.40;99.90;;;;;;4995279;28;20204;-82
2022/12/26 06:00:04;;;;;;;14.10;3.40;;;9.50;99.90;;;;;;4995417;28;20459;-83
2022/12/26 06:02:31;;;;;;;9.73;2.67;;;9.50;99.90;;;;;;4996154;28;20250;-83
2022/12/26 06:05:00;;;;;;;8.53;3.13;;;9.50;99.90;;;;;;5002231;28;20382;-81
2022/12/26 06:07:27;;;;;;;8.27;2.67;;;9.50;99.90;;;;;;5015173;28;20206;-82
2022/12/26 06:09:54;;;;;;;12.07;3.13;;;9.50;99.90;;;;;;5015074;28;20603;-82
2022/12/26 06:12:20;;;;;;;8.67;3.03;;;9.60;99.90;;;;;;5014408;28;20655;-82
2022/12/26 06:14:47;;;;;;;6.13;2.53;;;9.60;99.90;;;;;;4995413;28;20211;-82
2022/12/26 06:17:14;;;;;;;7.77;2.63;;;9.60;99.90;;;;;;4995283;28;20200;-81
2022/12/26 06:19:41;;;;;;;10.80;3.27;;;9.60;99.90;;;;;;4994990;28;20204;-82
2022/12/26 06:22:09;;;;;;;12.80;3.50;;;9.60;99.90;;;;;;4994666;28;20263;-83
2022/12/26 06:24:37;;;;;;;11.20;3.20;;;9.60;99.90;;;;;;4994760;28;20284;-84
2022/12/26 06:27:04;;;;;;;10.83;3.00;;;9.60;99.90;;;;;;4995010;28;20206;-82
2022/12/26 06:29:30;;;;;;;10.43;2.80;;;9.60;99.90;;;;;;4995367;28;20279;-82
2022/12/26 06:31:57;;;;;;;13.07;3.50;;;9.70;99.90;;;;;;4995285;28;20306;-81
2022/12/26 06:34:26;;;;;;;13.50;3.27;;;9.70;99.90;;;;;;4994627;28;20242;-82
2022/12/26 06:36:54;;;;;;;11.67;3.23;;;9.70;99.90;;;;;;4994671;28;20642;-82
2022/12/26 06:39:22;;;;;;;14.67;3.20;;;9.70;99.90;;;;;;4994371;28;20890;-81
2022/12/26 06:41:49;;;;;;;9.57;3.07;;;9.70;99.90;;;;;;4993765;28;20607;-82
2022/12/26 06:44:16;;;;;;;14.00;3.50;;;9.70;99.90;;;;;;4994739;28;20303;-83
2022/12/26 06:46:43;;;;;;;10.20;3.13;;;9.70;99.90;;;;;;4995073;28;20295;-80
2022/12/26 06:49:11;;;;;;;14.53;3.50;;;9.80;99.90;;;;;;4994810;28;20557;-80
2022/12/26 06:51:38;;;;;;;17.80;3.20;;;9.70;99.90;;;;;;4994910;28;20484;-83
2022/12/26 06:54:05;;;;;;;12.37;3.07;;;9.70;99.90;;;;;;4993936;28;20203;-81
2022/12/26 06:56:34;;;;;;;15.80;2.70;;;9.70;99.90;;;;;;4994665;28;20307;-82
2022/12/26 06:59:03;;;;;;;6.10;2.37;;;9.80;99.90;;;;;;4994142;28;20203;-82
2022/12/26 07:01:32;;;;;;;6.60;2.47;;;9.80;99.90;;;;;;4993298;28;20278;-82
2022/12/26 07:04:00;;;;;;;13.27;4.13;;;9.80;99.90;;;;;;4994281;28;20206;-82
2022/12/26 07:06:29;;;;;;;10.67;2.93;;;9.80;99.90;;;;;;5000162;28;20302;-83
2022/12/26 07:08:58;;;;;;;17.63;3.20;;;9.80;99.90;;;;;;5014352;28;20499;-84
2022/12/26 07:11:26;;;;;;;13.73;3.33;;;9.80;99.90;;;;;;5014289;28;20278;-83
2022/12/26 07:13:55;;;;;;;10.67;2.93;;;9.90;99.90;;;;;;5015053;28;20286;-83
2022/12/26 07:16:23;;;;;;;10.97;2.60;;;9.80;99.90;;;;;;4994362;28;20278;-85
2022/12/26 07:18:52;;;;;;;8.37;2.93;;;9.90;99.90;;;;;;4995300;28;20290;-83
2022/12/26 07:21:19;;;;;;;16.40;3.53;;;9.90;99.90;;;;;;4994798;28;20224;-82
2022/12/26 07:23:46;;;;;;;9.83;3.13;;;9.90;99.90;;;;;;4994572;28;20200;-86
2022/12/26 07:26:13;;;;;;;22.10;3.50;;;9.90;99.90;;;;;;4994778;28;20468;-84
2022/12/26 07:28:40;;;;;;;12.80;3.10;;;9.90;99.90;;;;;;4994916;28;20283;-82
2022/12/26 07:31:09;;;;;;;8.03;2.80;;;10.00;99.90;;;;;;4994969;28;20291;-85
2022/12/26 07:33:36;;;;;;;18.70;3.87;;;10.00;99.90;;;;;;4994683;28;20218;-85
2022/12/26 07:36:04;;;;;;;17.87;3.53;;;10.00;99.90;;;;;;4995046;28;20220;-88
2022/12/26 07:38:31;;;;;;;9.20;3.10;;;10.00;99.90;;;;;;5002816;28;20555;-91
2022/12/26 07:40:58;;;;;;;19.60;4.23;;;10.00;99.90;;;;;;5015051;28;20693;-86
2022/12/26 07:43:26;;;;;;;13.67;3.50;;;10.00;99.90;;;;;;5014449;28;20226;-86
2022/12/26 07:45:57;;;;;;;16.40;3.90;;;10.00;99.90;;;;;;5014358;28;20223;-83
2022/12/26 07:48:25;;;;;;;19.63;5.37;;;9.90;99.90;;;;;;5014526;28;20596;-88
2022/12/26 07:50:52;;;;;;;16.07;4.90;;;10.00;99.90;;;;;;5014490;28;20590;-85
2022/12/26 07:53:19;;;;;;;15.73;4.37;;;10.00;99.90;;;;;;5015931;28;20555;-86
2022/12/26 07:55:47;;;;;;;15.10;3.43;;;10.00;99.90;;;;;;5005457;28;20212;-89
2022/12/26 07:58:14;;;;;;;19.53;4.47;;;10.00;99.90;;;;;;4998539;28;20207;-85
2022/12/26 08:00:40;;;;;;;27.17;4.77;;;10.00;99.90;;;;;;4998862;28;20628;-88
2022/12/26 08:03:09;;;;;;;19.90;4.47;;;10.00;99.90;;;;;;5016778;28;20249;-89
2022/12/26 08:05:38;;;;;;;13.50;4.20;;;10.00;99.90;;;;;;5018016;28;20195;-86
2022/12/26 08:08:05;;;;;;;24.10;5.30;;;10.00;99.90;;;;;;5018388;28;20215;-88
2022/12/26 08:10:32;;;;;;;22.93;5.17;;;9.90;99.90;;;;;;5007889;28;20218;-87
2022/12/26 08:12:59;;;;;;;23.23;4.93;;;9.90;99.90;;;;;;4998154;28;20196;-86
2022/12/26 08:15:26;;;;;;;27.53;5.23;;;9.90;99.90;;;;;;4998308;28;20239;-87
2022/12/26 08:17:52;;;;;;;27.40;5.47;;;9.80;99.90;;;;;;4997270;28;20210;-87
2022/12/26 08:20:19;;;;;;;31.07;7.70;;;9.80;99.90;;;;;;4996966;28;20302;-89
2022/12/26 08:22:48;;;;;;;35.53;5.83;;;9.90;99.90;;;;;;4996464;28;20733;-82
2022/12/26 08:25:17;;;;;;;29.53;6.10;;;9.80;99.90;;;;;;4997707;28;20295;-83
2022/12/26 08:27:44;;;;;;;14.83;3.97;;;9.50;99.90;;;;;;4996386;28;20203;-80
2022/12/26 08:30:11;;;;;;;23.93;3.90;;;9.30;99.90;;;;;;4996265;28;20216;-80
2022/12/26 08:32:38;;;;;;;15.60;3.93;;;9.10;99.90;;;;;;4995851;28;20243;-81
2022/12/26 08:35:06;;;;;;;15.40;2.83;;;9.00;99.90;;;;;;4995947;28;20254;-81
2022/12/26 08:37:33;;;;;;;16.07;3.00;;;8.80;99.90;;;;;;4995901;28;20283;-80
2022/12/26 08:40:01;;;;;;;17.00;3.40;;;8.70;99.90;;;;;;4994948;28;20232;-79
2022/12/26 08:42:28;;;;;;;13.87;2.80;;;8.60;99.90;;;;;;4995646;28;20353;-81
2022/12/26 08:44:56;;;;;;;18.80;4.10;;;8.50;99.90;;;;;;5006568;28;20286;-79
2022/12/26 08:47:25;;;;;;;16.60;3.40;;;8.40;99.90;;;;;;5016340;28;20199;-80
2022/12/26 08:49:52;;;;;;;11.07;3.13;;;8.40;99.90;;;;;;5004545;28;20219;-82
2022/12/26 08:52:19;;;;;;;14.10;3.17;;;8.30;99.90;;;;;;4996286;28;20226;-85
2022/12/26 08:54:46;;;;;;;14.80;2.87;;;8.20;99.90;;;;;;5016583;28;20207;-87
2022/12/26 08:57:14;;;;;;;12.63;2.80;;;8.10;99.90;;;;;;5016721;28;20223;-85
2022/12/26 08:59:43;;;;;;;10.80;3.00;;;8.00;99.90;;;;;;5013228;28;20267;-82
2022/12/26 09:02:11;;;;;;;13.33;2.87;;;8.00;99.90;;;;;;5015469;28;20345;-81
2022/12/26 09:04:38;;;;;;;15.37;2.83;;;8.00;99.90;;;;;;5014646;28;20863;-82
2022/12/26 09:07:07;;;;;;;13.97;3.00;;;7.90;99.90;;;;;;5013942;28;20237;-83
2022/12/26 09:09:34;;;;;;;13.00;2.90;;;8.00;99.90;;;;;;5006005;28;20231;-84
2022/12/26 09:12:01;;;;;;;9.13;2.37;;;8.00;99.90;;;;;;5015401;28;20238;-84
2022/12/26 09:14:30;;;;;;;5.83;2.00;;;8.00;99.90;;;;;;5011600;28;20216;-80
2022/12/26 09:16:57;;;;;;;9.17;1.90;;;8.00;99.90;;;;;;5004526;28;20208;-82
2022/12/26 09:19:28;;;;;;;9.63;2.27;;;8.10;99.90;;;;;;5009460;28;20508;-79
2022/12/26 09:24:36;;;;;;;10.03;1.90;;;8.10;99.90;;;;;;5014005;28;20195;-82
2022/12/26 09:27:03;;;;;;;5.90;1.30;;;8.10;99.90;;;;;;5006115;28;20286;-80
2022/12/26 09:29:31;;;;;;;10.17;2.30;;;8.20;99.90;;;;;;5014746;28;20278;-83
2022/12/26 09:31:58;;;;;;;10.43;2.23;;;8.20;99.90;;;;;;5007114;28;20235;-80
2022/12/26 09:34:25;;;;;;;8.50;2.30;;;8.20;99.90;;;;;;4996416;28;20246;-83
2022/12/26 09:36:52;;;;;;;11.30;2.30;;;8.20;99.90;;;;;;4997914;28;20296;-81
2022/12/26 09:39:19;;;;;;;11.60;2.20;;;8.20;99.90;;;;;;4994560;28;20240;-80
2022/12/26 09:42:08;;;;;;;7.33;1.80;;;8.20;99.90;;;;;;4995105;28;20223;-82
2022/12/26 09:44:48;;;;;;;9.30;2.37;;;8.30;99.90;;;;;;4994250;28;20204;-80
2022/12/26 09:47:31;;;;;;;5.20;1.87;;;8.30;99.90;;;;;;4994377;28;20187;-78
2022/12/26 09:50:02;;;;;;;14.37;2.77;;;8.30;99.90;;;;;;4994665;28;20210;-81
2022/12/26 09:52:48;;;;;;;14.53;2.13;;;8.30;99.90;;;;;;4995066;28;20416;-80
2022/12/26 09:55:35;;;;;;;10.30;1.97;;;8.30;99.90;;;;;;4995172;28;20230;-79
2022/12/26 09:58:08;;;;;;;9.50;1.90;;;8.30;99.90;;;;;;5005814;28;20283;-79
2022/12/26 10:00:44;;;;;;;7.57;2.53;;;8.30;99.90;;;;;;5013868;28;20760;-81
2022/12/26 10:03:11;;;;;;;12.63;2.10;;;8.30;99.90;;;;;;5010339;28;20209;-80
2022/12/26 10:05:48;;;;;;;4.43;1.43;;;8.30;99.90;;;;;;5014085;28;20200;-81
2022/12/26 10:08:26;;;;;;;11.93;1.97;;;8.30;99.90;;;;;;5013351;28;20191;-82
2022/12/26 10:10:59;;;;;;;10.27;2.37;;;8.40;99.90;;;;;;5014973;28;20226;-80
2022/12/26 10:13:34;;;;;;;10.90;1.77;;;8.40;99.90;;;;;;5013690;28;20234;-83
2022/12/26 10:16:08;;;;;;;9.80;2.50;;;8.40;99.90;;;;;;5010817;28;20514;-80
2022/12/26 10:18:40;;;;;;;10.60;2.37;;;8.40;99.90;;;;;;5014035;28;20599;-80
2022/12/26 10:21:21;;;;;;;7.60;1.97;;;8.30;99.90;;;;;;5014661;28;20222;-80
2022/12/26 10:23:52;;;;;;;11.17;2.13;;;8.40;99.90;;;;;;5001235;28;20218;-80
2022/12/26 10:26:22;;;;;;;11.93;2.40;;;8.40;99.90;;;;;;4994944;28;20215;-80
2022/12/26 10:28:58;;;;;;;11.97;1.83;;;8.40;99.90;;;;;;4995060;28;20215;-81
2022/12/26 10:31:32;;;;;;;11.17;2.70;;;8.40;99.90;;;;;;4994685;28;20264;-83
2022/12/26 10:34:07;;;;;;;9.80;1.83;;;8.40;99.90;;;;;;4994592;28;20299;-84
2022/12/26 10:36:41;;;;;;;8.83;1.90;;;8.30;99.90;;;;;;4995124;28;20196;-84
2022/12/26 10:39:25;;;;;;;3.20;1.30;;;8.30;99.90;;;;;;4993877;28;20214;-80
2022/12/26 10:41:55;;;;;;;6.47;1.80;;;8.20;99.90;;;;;;4994442;28;20222;-81
2022/12/26 10:44:22;;;;;;;4.87;1.60;;;8.20;99.90;;;;;;4993968;28;20214;-82
2022/12/26 10:47:19;;;;;;;11.97;3.20;;;8.10;99.90;;;;;;4994017;28;20285;-80
2022/12/26 10:49:48;;;;;;;10.23;2.23;;;8.10;99.90;;;;;;5006190;28;20298;-83
2022/12/26 10:52:17;;;;;;;5.80;1.70;;;8.20;99.90;;;;;;5013696;28;20287;-82
2022/12/26 10:54:48;;;;;;;5.90;1.67;;;8.30;99.90;;;;;;5008332;28;20283;-80
2022/12/26 10:57:15;;;;;;;9.87;2.03;;;8.40;99.90;;;;;;4993691;28;20281;-82
2022/12/26 10:59:44;;;;;;;9.43;2.10;;;8.40;99.90;;;;;;4993898;28;20192;-80
2022/12/26 11:02:22;;;;;;;10.23;2.50;;;8.40;99.90;;;;;;5011102;28;20277;-83
2022/12/26 11:05:08;;;;;;;10.73;2.60;;;8.40;99.90;;;;;;5012661;28;20188;-80
2022/12/26 11:07:37;;;;;;;14.70;2.90;;;8.50;99.90;;;;;;5006101;28;20214;-79
2022/12/26 11:10:14;;;;;;;9.13;2.00;;;8.50;99.90;;;;;;5013100;28;20203;-81
2022/12/26 11:12:48;;;;;;;13.80;3.27;;;8.50;99.90;;;;;;5013967;28;20195;-81
2022/12/26 11:15:22;;;;;;;10.63;2.27;;;8.60;99.90;;;;;;5011279;28;20769;-81
2022/12/26 11:17:52;;;;;;;9.97;2.57;;;8.60;99.90;;;;;;5002748;28;20230;-82
2022/12/26 11:20:29;;;;;;;8.50;2.97;;;8.60;99.90;;;;;;5011309;28;20206;-80
2022/12/26 11:23:25;;;;;;;12.83;2.93;;;8.60;99.90;;;;;;4993462;28;20246;-82
2022/12/26 11:25:55;;;;;;;13.23;2.17;;;8.60;99.90;;;;;;5012096;28;20669;-80
2022/12/26 11:28:28;;;;;;;15.10;3.60;;;8.60;99.90;;;;;;4993763;28;20196;-84
2022/12/26 11:30:56;;;;;;;8.27;1.83;;;8.60;99.90;;;;;;5001133;28;20199;-81
2022/12/26 11:33:28;;;;;;;7.10;1.87;;;8.50;99.90;;;;;;5013397;28;20278;-88
2022/12/26 11:36:10;;;;;;;9.33;2.70;;;8.40;99.90;;;;;;5006147;28;20204;-84
2022/12/26 11:38:50;;;;;;;10.13;2.23;;;8.30;99.90;;;;;;5009792;28;20306;-83
2022/12/26 11:41:31;;;;;;;8.23;2.37;;;8.30;99.90;;;;;;5010731;28;20787;-82
2022/12/26 11:44:04;;;;;;;10.87;2.37;;;8.20;99.90;;;;;;5010696;28;20258;-82
2022/12/26 11:46:36;;;;;;;8.00;1.80;;;8.20;99.90;;;;;;5012270;28;20192;-82
2022/12/26 11:49:05;;;;;;;8.73;1.90;;;8.20;99.90;;;;;;5007073;28;20203;-80
2022/12/26 11:51:39;;;;;;;8.43;1.70;;;8.20;99.90;;;;;;4993709;28;20204;-82
2022/12/26 11:54:19;;;;;;;11.27;1.60;;;8.20;99.90;;;;;;4992285;28;20650;-82
2022/12/26 11:56:46;;;;;;;4.53;1.50;;;8.10;99.90;;;;;;4991539;28;20203;-82
2022/12/26 11:59:19;;;;;;;7.67;1.63;;;8.10;99.90;;;;;;4992614;28;20232;-80
2022/12/26 12:01:49;;;;;;;8.33;1.97;;;8.20;99.90;;;;;;4992802;28;20224;-81
2022/12/26 12:04:18;;;;;;;7.00;1.30;;;8.20;99.90;;;;;;4992899;28;20551;-81
2022/12/26 12:06:59;;;;;;;9.83;2.23;;;8.20;99.90;;;;;;4992777;28;20652;-81
2022/12/26 12:09:36;;;;;;;7.30;1.53;;;8.20;99.90;;;;;;4992871;28;20200;-82
2022/12/26 12:12:11;;;;;;;8.23;1.90;;;8.20;99.90;;;;;;4991178;28;20510;-79
2022/12/26 12:14:53;;;;;;;10.23;2.27;;;8.20;99.90;;;;;;4991840;28;20199;-81
2022/12/26 12:17:27;;;;;;;11.47;1.57;;;8.20;99.90;;;;;;4990918;28;20279;-79
2022/12/26 12:20:08;;;;;;;11.70;2.27;;;8.30;99.90;;;;;;5003465;28;20219;-81
2022/12/26 12:22:55;;;;;;;8.33;2.23;;;8.40;99.90;;;;;;5012043;28;20254;-81
2022/12/26 12:25:44;;;;;;;9.43;2.53;;;8.50;99.90;;;;;;5010748;28;20231;-80
2022/12/26 12:28:27;;;;;;;9.97;1.97;;;8.50;99.90;;;;;;4994686;28;20291;-83
2022/12/26 12:31:00;;;;;;;11.03;2.03;;;8.50;99.90;;;;;;4992881;28;20294;-82
2022/12/26 12:33:40;;;;;;;11.17;2.10;;;8.50;99.90;;;;;;4992073;28;20671;-82
2022/12/26 12:36:15;;;;;;;10.07;2.00;;;8.50;99.90;;;;;;4992437;28;20691;-80
2022/12/26 12:38:56;;;;;;;9.70;2.10;;;8.50;99.90;;;;;;4992068;28;20295;-80
2022/12/26 12:41:36;;;;;;;11.17;3.33;;;8.40;99.90;;;;;;4996072;28;20219;-80
2022/12/26 12:44:07;;;;;;;5.87;1.60;;;8.50;99.90;;;;;;4997006;28;20212;-81
2022/12/26 12:46:44;;;;;;;10.73;1.93;;;8.40;99.90;;;;;;4995251;28;20191;-81
2022/12/26 12:49:28;;;;;;;7.33;2.10;;;8.30;99.90;;;;;;4995551;28;20619;-81
2022/12/26 12:52:06;;;;;;;11.97;2.60;;;8.30;99.90;;;;;;4996074;28;20192;-81
2022/12/26 12:54:50;;;;;;;7.10;1.80;;;8.20;99.90;;;;;;4995360;28;20219;-81
2022/12/26 12:57:24;;;;;;;9.17;1.87;;;8.10;99.90;;;;;;4995831;28;20200;-81
2022/12/26 13:00:02;;;;;;;7.33;2.17;;;8.10;99.90;;;;;;5014791;28;20869;-81
2022/12/26 13:02:34;;;;;;;5.33;2.20;;;8.10;99.90;;;;;;5015011;28;20233;-81
2022/12/26 13:05:11;;;;;;;6.50;1.40;;;8.00;99.90;;;;;;5015457;28;20190;-82
2022/12/26 13:07:45;;;;;;;3.93;1.30;;;8.00;99.90;;;;;;5001575;28;20265;-83
2022/12/26 13:10:18;;;;;;;6.13;2.20;;;8.00;99.90;;;;;;4995220;28;20510;-83
2022/12/26 13:12:49;;;;;;;10.17;2.10;;;8.00;99.90;;;;;;4995200;28;20660;-81
2022/12/26 13:15:28;;;;;;;11.70;2.17;;;8.10;99.90;;;;;;4995320;28;20193;-80
2022/12/26 13:18:02;;;;;;;8.23;1.97;;;8.00;99.90;;;;;;4995390;28;20215;-82
2022/12/26 13:20:34;;;;;;;7.37;1.40;;;7.90;99.90;;;;;;5011569;28;20205;-82
2022/12/26 13:26:04;;;;;;;6.67;1.87;;;7.90;99.90;;;;;;4995385;28;20596;-82
2022/12/26 13:28:36;;;;;;;8.57;1.70;;;7.90;99.90;;;;;;4994479;28;20694;-81
2022/12/26 13:31:03;;;;;;;5.27;1.40;;;7.90;99.90;;;;;;4994876;28;20295;-81
2022/12/26 13:33:31;;;;;;;7.37;1.97;;;7.90;99.90;;;;;;4995601;28;20243;-82
2022/12/26 13:36:00;;;;;;;5.73;1.67;;;8.00;99.90;;;;;;4994493;28;20295;-81
2022/12/26 13:39:06;;;;;;;8.67;1.90;;;8.10;99.90;;;;;;4998782;28;20203;-82
2022/12/26 13:44:27;;;;;;;8.37;2.40;;;8.20;99.90;;;;;;5014620;28;20309;-83
2022/12/26 13:46:56;;;;;;;8.47;1.77;;;8.20;99.90;;;;;;4995985;28;20215;-79
2022/12/26 13:49:35;;;;;;;8.03;1.77;;;8.20;99.90;;;;;;4994951;28;20211;-81
2022/12/26 13:52:30;;;;;;;6.93;1.60;;;8.20;99.90;;;;;;4994945;28;20250;-81
2022/12/26 13:55:29;;;;;;;8.60;1.70;;;8.20;99.90;;;;;;4995435;28;20276;-81
2022/12/26 13:58:27;;;;;;;4.50;1.37;;;8.20;99.90;;;;;;4994381;28;20196;-82
2022/12/26 14:01:01;;;;;;;11.07;2.40;;;8.30;99.90;;;;;;4994277;28;20238;-81
2022/12/26 14:03:45;;;;;;;9.00;1.80;;;8.30;99.90;;;;;;4993958;28;20227;-82
2022/12/26 14:06:27;;;;;;;11.20;2.00;;;8.30;99.90;;;;;;4994543;28;20651;-80
2022/12/26 14:09:09;;;;;;;5.40;1.67;;;8.30;99.90;;;;;;4994452;28;20234;-78
2022/12/26 14:11:51;;;;;;;8.37;2.23;;;8.30;99.90;;;;;;4993627;28;20210;-80
2022/12/26 14:14:29;;;;;;;6.40;2.07;;;8.30;99.90;;;;;;4994547;28;20271;-81
2022/12/26 14:17:06;;;;;;;12.07;2.23;;;8.30;99.90;;;;;;4994406;28;20283;-81
2022/12/26 14:19:45;;;;;;;9.47;1.90;;;8.20;99.90;;;;;;4994488;28;20294;-81
2022/12/26 14:22:17;;;;;;;8.60;1.80;;;8.10;99.90;;;;;;5009797;28;20211;-82
2022/12/26 14:24:58;;;;;;;8.60;1.90;;;8.10;99.90;;;;;;5013628;28;20274;-80
2022/12/26 14:27:35;;;;;;;10.33;2.40;;;8.10;99.90;;;;;;4993757;28;20205;-80
2022/12/26 14:30:18;;;;;;;7.93;1.97;;;8.10;99.90;;;;;;4994134;28;20282;-81
2022/12/26 14:33:03;;;;;;;8.83;2.80;;;8.10;99.90;;;;;;4993453;28;20192;-81
2022/12/26 14:35:35;;;;;;;7.17;1.87;;;8.10;99.90;;;;;;4994470;28;20262;-80
2022/12/26 14:38:17;;;;;;;10.23;2.80;;;8.00;99.90;;;;;;4993374;28;20275;-82
2022/12/26 14:40:59;;;;;;;10.97;2.33;;;7.90;99.90;;;;;;4993399;28;20554;-82
2022/12/26 14:43:37;;;;;;;11.67;1.63;;;7.90;99.90;;;;;;4993442;28;20310;-81
2022/12/26 14:46:09;;;;;;;14.27;2.70;;;7.80;99.90;;;;;;4993166;28;20258;-80
2022/12/26 14:48:48;;;;;;;12.63;2.87;;;7.80;99.90;;;;;;4993196;28;20251;-81
2022/12/26 14:51:49;;;;;;;7.93;1.90;;;7.80;99.90;;;;;;4996604;28;20191;-81
2022/12/26 14:54:38;;;;;;;13.83;1.97;;;7.80;99.90;;;;;;5029802;28;20205;-81
2022/12/26 14:57:45;;;;;;;7.63;2.13;;;7.80;99.90;;;;;;5030553;28;20664;-80
2022/12/26 15:00:33;;;;;;;6.83;2.20;;;7.80;99.90;;;;;;4992086;28;20219;-80
2022/12/26 15:03:40;;;;;;;7.83;1.97;;;7.70;99.90;;;;;;4997243;28;20242;-80
2022/12/26 15:06:38;;;;;;;5.90;1.80;;;7.70;99.90;;;;;;5012529;28;20198;-80
2022/12/26 15:09:23;;;;;;;11.10;3.20;;;7.60;99.90;;;;;;5011176;28;20199;-81
2022/12/26 15:12:16;;;;;;;12.07;2.57;;;7.60;99.90;;;;;;4993753;28;20198;-81
2022/12/26 15:15:22;;;;;;;9.37;2.00;;;7.60;99.90;;;;;;4992381;28;20224;-80
2022/12/26 15:18:08;;;;;;;12.43;2.93;;;7.50;99.90;;;;;;4993449;28;20192;-81
2022/12/26 15:21:11;;;;;;;14.60;3.40;;;7.40;99.90;;;;;;4992407;28;20188;-81
2022/12/26 15:24:02;;;;;;;10.43;3.03;;;7.40;99.90;;;;;;5006924;28;20238;-80
2022/12/26 15:27:10;;;;;;;7.23;2.13;;;7.30;99.90;;;;;;5012811;28;20550;-80
2022/12/26 15:30:07;;;;;;;10.93;3.57;;;7.40;99.90;;;;;;4977000;28;20298;-80
2022/12/26 15:32:39;;;;;;;13.53;2.97;;;7.30;99.90;;;;;;4996600;28;20295;-80